createdAt,value
2023-03-11T00:00:28.612Z,1.47
2023-03-11T00:01:28.721Z,1.47
2023-03-11T00:02:28.670Z,1.46
2023-03-11T00:03:28.646Z,1.44
2023-03-11T00:04:28.536Z,1.46
2023-03-11T00:05:28.845Z,1.46
2023-03-11T00:06:29.124Z,1.44
2023-03-11T00:07:28.525Z,1.43
2023-03-11T00:08:28.832Z,1.42
2023-03-11T00:09:28.513Z,1.40
2023-03-11T00:10:30.122Z,1.40
2023-03-11T00:11:28.489Z,1.42
2023-03-11T00:12:28.624Z,1.37
2023-03-11T00:13:28.878Z,1.36
2023-03-11T00:14:28.466Z,1.33
2023-03-11T00:15:28.589Z,1.34
2023-03-11T00:16:28.721Z,1.36
2023-03-11T00:17:28.411Z,1.37
2023-03-11T00:18:28.369Z,1.36
2023-03-11T00:19:28.408Z,1.37
2023-03-11T00:20:28.575Z,1.34
2023-03-11T00:21:28.437Z,1.34
2023-03-11T00:22:28.383Z,1.34
2023-03-11T00:23:28.401Z,1.34
2023-03-11T00:24:28.373Z,1.34
2023-03-11T00:25:28.562Z,1.37
2023-03-11T00:26:28.319Z,1.36
2023-03-11T00:27:28.428Z,1.36
2023-03-11T00:28:28.377Z,1.37
2023-03-11T00:29:28.354Z,1.37
2023-03-11T00:30:28.310Z,1.36
2023-03-11T00:31:28.269Z,1.37
2023-03-11T00:32:28.663Z,1.36
2023-03-11T00:33:28.391Z,1.37
2023-03-11T00:34:28.275Z,1.39
2023-03-11T00:35:28.885Z,1.36
2023-03-11T00:36:28.276Z,1.34
2023-03-11T00:37:28.256Z,1.37
2023-03-11T00:38:28.247Z,1.39
2023-03-11T00:39:28.232Z,1.40
2023-03-11T00:40:28.393Z,1.40
2023-03-11T00:41:28.198Z,1.37
2023-03-11T00:42:28.176Z,1.39
2023-03-11T00:43:28.183Z,1.39
2023-03-11T00:44:28.169Z,1.39
2023-03-11T00:45:28.320Z,1.39
2023-03-11T00:46:28.273Z,1.39
2023-03-11T00:47:28.261Z,1.36
2023-03-11T00:48:28.125Z,1.33
2023-03-11T00:49:28.110Z,1.33
2023-03-11T00:50:28.155Z,1.29
2023-03-11T00:51:28.192Z,1.29
2023-03-11T00:52:28.149Z,1.29
2023-03-11T00:53:28.275Z,1.28
2023-03-11T00:54:28.316Z,1.29
2023-03-11T00:55:28.120Z,1.29
2023-03-11T00:56:28.069Z,1.29
2023-03-11T00:57:28.116Z,1.29
2023-03-11T00:58:28.036Z,1.29
2023-03-11T00:59:28.388Z,1.32
2023-03-11T01:00:28.088Z,1.29
2023-03-11T01:01:28.188Z,1.32
2023-03-11T01:02:27.988Z,1.32
2023-03-11T01:03:28.027Z,1.29
2023-03-11T01:04:28.247Z,1.36
2023-03-11T01:05:27.964Z,1.36
2023-03-11T01:06:35.907Z,1.37
2023-03-11T01:07:28.163Z,1.37
2023-03-11T01:08:28.148Z,1.36
2023-03-11T01:09:27.995Z,1.37
2023-03-11T01:10:27.934Z,1.39
2023-03-11T01:11:27.932Z,1.39
2023-03-11T01:12:27.988Z,1.39
2023-03-11T01:13:27.891Z,1.39
2023-03-11T01:14:27.903Z,1.40
2023-03-11T01:15:27.949Z,1.39
2023-03-11T01:16:27.898Z,1.39
2023-03-11T01:17:28.302Z,1.39
2023-03-11T01:18:28.084Z,1.39
2023-03-11T01:19:28.294Z,1.36
2023-03-11T01:20:27.831Z,1.36
2023-03-11T01:21:28.003Z,1.36
2023-03-11T01:22:27.925Z,1.37
2023-03-11T01:23:27.872Z,1.36
2023-03-11T01:24:28.018Z,1.36
2023-03-11T01:25:27.806Z,1.32
2023-03-11T01:26:28.028Z,1.29
2023-03-11T01:27:27.831Z,1.28
2023-03-11T01:28:27.733Z,1.25
2023-03-11T01:29:27.750Z,1.22
2023-03-11T01:30:27.709Z,1.21
2023-03-11T01:31:27.938Z,1.16
2023-03-11T01:32:28.014Z,1.12
2023-03-11T01:33:27.724Z,1.08
2023-03-11T01:34:28.101Z,1.04
2023-03-11T01:35:27.795Z,1.01
2023-03-11T01:36:27.671Z,0.98
2023-03-11T01:37:28.018Z,0.97
2023-03-11T01:38:27.648Z,0.98
2023-03-11T01:39:27.734Z,0.97
2023-03-11T01:40:27.642Z,0.97
2023-03-11T01:41:27.703Z,0.97
2023-03-11T01:42:27.837Z,0.97
2023-03-11T01:43:27.600Z,1.00
2023-03-11T01:44:27.673Z,0.98
2023-03-11T01:45:27.714Z,1.00
2023-03-11T01:46:27.619Z,1.00
2023-03-11T01:47:27.552Z,0.97
2023-03-11T01:48:27.529Z,0.97
2023-03-11T01:49:27.760Z,0.97
2023-03-11T01:50:27.536Z,0.98
2023-03-11T01:51:27.600Z,0.98
2023-03-11T01:52:27.574Z,0.98
2023-03-11T01:53:27.705Z,0.98
2023-03-11T01:54:27.547Z,0.98
2023-03-11T01:55:27.566Z,0.96
2023-03-11T01:56:27.463Z,0.97
2023-03-11T01:57:27.530Z,0.96
2023-03-11T01:58:27.511Z,0.92
2023-03-11T01:59:27.485Z,0.94
2023-03-11T02:00:27.454Z,0.90
2023-03-11T02:01:27.600Z,0.88
2023-03-11T02:02:27.468Z,0.83
2023-03-11T02:03:27.649Z,0.78
2023-03-11T02:04:27.494Z,0.75
2023-03-11T02:05:27.483Z,0.70
2023-03-11T02:06:27.556Z,0.70
2023-03-11T02:07:27.607Z,0.64
2023-03-11T02:08:27.674Z,0.60
2023-03-11T02:09:27.609Z,0.58
2023-03-11T02:10:27.472Z,0.53
2023-03-11T02:11:27.538Z,0.52
2023-03-11T02:12:27.510Z,0.49
2023-03-11T02:13:27.445Z,0.48
2023-03-11T02:14:27.659Z,0.45
2023-03-11T02:15:27.400Z,0.43
2023-03-11T02:16:27.498Z,0.45
2023-03-11T02:17:27.296Z,0.45
2023-03-11T02:18:27.419Z,0.43
2023-03-11T02:19:27.279Z,0.39
2023-03-11T02:20:27.252Z,0.36
2023-03-11T02:21:27.318Z,0.39
2023-03-11T02:22:27.340Z,0.36
2023-03-11T02:23:27.265Z,0.34
2023-03-11T02:24:27.247Z,0.34
2023-03-11T02:25:27.244Z,0.36
2023-03-11T02:26:27.604Z,0.36
2023-03-11T02:27:27.467Z,0.34
2023-03-11T02:28:27.383Z,0.31
2023-03-11T02:29:27.294Z,0.28
2023-03-11T02:30:27.278Z,0.31
2023-03-11T02:31:27.406Z,0.30
2023-03-11T02:32:27.224Z,0.31
2023-03-11T02:33:27.348Z,0.27
2023-03-11T02:34:27.313Z,0.25
2023-03-11T02:35:27.533Z,0.24
2023-03-11T02:36:27.120Z,0.20
2023-03-11T02:37:27.099Z,0.18
2023-03-11T02:38:27.134Z,0.18
2023-03-11T02:39:27.215Z,0.20
2023-03-11T02:40:27.220Z,0.20
2023-03-11T02:41:27.181Z,0.21
2023-03-11T02:42:27.234Z,0.21
2023-03-11T02:43:27.105Z,0.21
2023-03-11T02:44:27.101Z,0.23
2023-03-11T02:45:27.197Z,0.23
2023-03-11T02:46:27.290Z,0.24
2023-03-11T02:47:27.212Z,0.24
2023-03-11T02:48:27.049Z,0.23
2023-03-11T02:49:27.040Z,0.20
2023-03-11T02:50:26.973Z,0.20
2023-03-11T02:51:27.249Z,0.21
2023-03-11T02:52:27.120Z,0.20
2023-03-11T02:53:27.008Z,0.18
2023-03-11T02:54:26.991Z,0.18
2023-03-11T02:55:26.965Z,0.21
2023-03-11T02:56:27.202Z,0.23
2023-03-11T02:57:27.124Z,0.20
2023-03-11T02:58:27.093Z,0.20
2023-03-11T02:59:27.053Z,0.18
2023-03-11T03:00:26.875Z,0.18
2023-03-11T03:01:26.910Z,0.18
2023-03-11T03:02:27.087Z,0.18
2023-03-11T03:03:27.099Z,0.20
2023-03-11T03:04:26.889Z,0.23
2023-03-11T03:05:26.941Z,0.23
2023-03-11T03:06:27.037Z,0.25
2023-03-11T03:07:26.942Z,0.27
2023-03-11T03:08:26.874Z,0.27
2023-03-11T03:09:27.020Z,0.25
2023-03-11T03:10:26.795Z,0.28
2023-03-11T03:11:26.918Z,0.28
2023-03-11T03:12:26.759Z,0.28
2023-03-11T03:13:26.853Z,0.30
2023-03-11T03:14:26.737Z,0.31
2023-03-11T03:15:26.791Z,0.30
2023-03-11T03:16:26.790Z,0.31
2023-03-11T03:17:26.762Z,0.34
2023-03-11T03:18:26.707Z,0.36
2023-03-11T03:19:26.686Z,0.36
2023-03-11T03:20:26.717Z,0.38
2023-03-11T03:21:26.684Z,0.34
2023-03-11T03:22:27.005Z,0.36
2023-03-11T03:23:26.656Z,0.34
2023-03-11T03:24:26.743Z,0.33
2023-03-11T03:25:26.805Z,0.31
2023-03-11T03:26:26.606Z,0.31
2023-03-11T03:27:26.662Z,0.31
2023-03-11T03:28:26.713Z,0.30
2023-03-11T03:29:26.637Z,0.31
2023-03-11T03:30:26.733Z,0.31
2023-03-11T03:31:26.715Z,0.30
2023-03-11T03:32:26.704Z,0.28
2023-03-11T03:33:26.671Z,0.28
2023-03-11T03:34:26.557Z,0.25
2023-03-11T03:35:26.567Z,0.23
2023-03-11T03:36:26.739Z,0.23
2023-03-11T03:37:26.547Z,0.21
2023-03-11T03:38:26.499Z,0.18
2023-03-11T03:39:28.205Z,0.16
2023-03-11T03:40:26.638Z,0.18
2023-03-11T03:41:26.744Z,0.16
2023-03-11T03:42:26.489Z,0.15
2023-03-11T03:43:26.450Z,0.15
2023-03-11T03:44:26.486Z,0.13
2023-03-11T03:45:27.236Z,0.12
2023-03-11T03:46:26.530Z,0.10
2023-03-11T03:47:26.555Z,0.07
2023-03-11T03:48:26.383Z,0.05
2023-03-11T03:49:26.442Z,0.03
2023-03-11T03:50:26.374Z,0.05
2023-03-11T03:51:26.415Z,0.03
2023-03-11T03:52:26.463Z,0.06
2023-03-11T03:53:26.355Z,0.05
2023-03-11T03:54:26.373Z,0.05
2023-03-11T03:55:26.498Z,0.05
2023-03-11T03:56:26.360Z,0.03
2023-03-11T03:57:26.536Z,0.03
2023-03-11T03:58:26.302Z,0.03
2023-03-11T03:59:26.296Z,0.00
2023-03-11T04:00:26.321Z,0.02
2023-03-11T04:01:26.496Z,-0.01
2023-03-11T04:02:26.335Z,-0.04
2023-03-11T04:03:26.431Z,0.00
2023-03-11T04:04:26.514Z,0.02
2023-03-11T04:05:26.245Z,0.00
2023-03-11T04:06:26.243Z,0.00
2023-03-11T04:07:26.268Z,0.03
2023-03-11T04:08:26.271Z,0.00
2023-03-11T04:09:26.322Z,0.02
2023-03-11T04:10:26.712Z,0.03
2023-03-11T04:11:26.263Z,0.02
2023-03-11T04:12:26.295Z,0.05
2023-03-11T04:13:26.700Z,0.03
2023-03-11T04:14:26.808Z,0.07
2023-03-11T04:15:26.193Z,0.09
2023-03-11T04:16:26.241Z,0.10
2023-03-11T04:17:26.108Z,0.12
2023-03-11T04:18:26.130Z,0.12
2023-03-11T04:19:26.332Z,0.15
2023-03-11T04:20:26.156Z,0.13
2023-03-11T04:21:26.184Z,0.16
2023-03-11T04:22:26.091Z,0.18
2023-03-11T04:23:26.518Z,0.18
2023-03-11T04:24:26.068Z,0.13
2023-03-11T04:25:26.054Z,0.12
2023-03-11T04:26:26.074Z,0.09
2023-03-11T04:27:26.209Z,0.07
2023-03-11T04:28:26.230Z,0.09
2023-03-11T04:29:26.199Z,0.06
2023-03-11T04:30:25.997Z,0.06
2023-03-11T04:31:26.231Z,0.06
2023-03-11T04:32:26.027Z,0.05
2023-03-11T04:33:26.153Z,0.05
2023-03-11T04:34:26.113Z,0.03
2023-03-11T04:35:26.375Z,0.02
2023-03-11T04:36:26.128Z,0.03
2023-03-11T04:37:25.915Z,0.02
2023-03-11T04:38:25.957Z,0.02
2023-03-11T04:39:26.568Z,-0.01
2023-03-11T04:40:26.038Z,-0.01
2023-03-11T04:41:26.035Z,-0.01
2023-03-11T04:42:26.040Z,-0.05
2023-03-11T04:43:25.894Z,-0.04
2023-03-11T04:44:25.924Z,-0.06
2023-03-11T04:45:26.171Z,-0.06
2023-03-11T04:46:25.894Z,-0.06
2023-03-11T04:47:25.985Z,-0.08
2023-03-11T04:48:25.824Z,-0.08
2023-03-11T04:49:25.864Z,-0.08
2023-03-11T04:50:25.963Z,-0.09
2023-03-11T04:51:25.864Z,-0.09
2023-03-11T04:52:25.913Z,-0.08
2023-03-11T04:53:25.930Z,-0.09
2023-03-11T04:54:25.922Z,-0.08
2023-03-11T04:55:25.823Z,-0.06
2023-03-11T04:56:25.869Z,-0.06
2023-03-11T04:57:25.946Z,-0.05
2023-03-11T04:58:25.741Z,-0.01
2023-03-11T04:59:25.816Z,-0.01
2023-03-11T05:00:25.706Z,0.00
2023-03-11T05:01:25.745Z,0.00
2023-03-11T05:02:25.694Z,-0.04
2023-03-11T05:03:25.789Z,0.00
2023-03-11T05:04:25.702Z,-0.01
2023-03-11T05:05:25.841Z,-0.01
2023-03-11T05:06:26.269Z,0.03
2023-03-11T05:07:25.659Z,0.05
2023-03-11T05:08:25.724Z,0.07
2023-03-11T05:09:26.232Z,0.07
2023-03-11T05:10:25.650Z,0.07
2023-03-11T05:11:25.628Z,0.10
2023-03-11T05:12:25.758Z,0.09
2023-03-11T05:13:25.554Z,0.10
2023-03-11T05:14:25.946Z,0.09
2023-03-11T05:15:25.707Z,0.06
2023-03-11T05:16:25.700Z,0.05
2023-03-11T05:17:25.556Z,0.05
2023-03-11T05:18:25.519Z,0.05
2023-03-11T05:19:25.516Z,0.02
2023-03-11T05:20:25.512Z,0.02
2023-03-11T05:21:25.615Z,0.02
2023-03-11T05:22:25.495Z,0.02
2023-03-11T05:23:25.702Z,0.02
2023-03-11T05:24:26.519Z,-0.01
2023-03-11T05:25:25.459Z,-0.05
2023-03-11T05:26:25.555Z,-0.08
2023-03-11T05:27:25.443Z,-0.09
2023-03-11T05:28:25.666Z,-0.12
2023-03-11T05:29:25.457Z,-0.15
2023-03-11T05:30:25.616Z,-0.15
2023-03-11T05:31:25.423Z,-0.16
2023-03-11T05:32:25.790Z,-0.16
2023-03-11T05:33:25.796Z,-0.18
2023-03-11T05:34:25.398Z,-0.18
2023-03-11T05:35:25.430Z,-0.16
2023-03-11T05:36:25.442Z,-0.13
2023-03-11T05:37:25.356Z,-0.15
2023-03-11T05:38:25.332Z,-0.13
2023-03-11T05:39:25.418Z,-0.13
2023-03-11T05:40:25.342Z,-0.13
2023-03-11T05:41:25.515Z,-0.16
2023-03-11T05:42:25.317Z,-0.18
2023-03-11T05:43:25.300Z,-0.22
2023-03-11T05:44:25.363Z,-0.22
2023-03-11T05:45:25.569Z,-0.26
2023-03-11T05:46:25.300Z,-0.27
2023-03-11T05:47:25.303Z,-0.26
2023-03-11T05:48:25.271Z,-0.31
2023-03-11T05:49:25.310Z,-0.33
2023-03-11T05:50:25.368Z,-0.30
2023-03-11T05:51:25.375Z,-0.30
2023-03-11T05:52:25.384Z,-0.30
2023-03-11T05:53:25.368Z,-0.29
2023-03-11T05:54:25.382Z,-0.29
2023-03-11T05:55:25.408Z,-0.29
2023-03-11T05:56:25.235Z,-0.29
2023-03-11T05:57:25.470Z,-0.29
2023-03-11T05:58:25.326Z,-0.30
2023-03-11T05:59:25.207Z,-0.31
2023-03-11T06:00:25.330Z,-0.33
2023-03-11T06:01:25.206Z,-0.36
2023-03-11T06:02:25.288Z,-0.39
2023-03-11T06:03:25.127Z,-0.41
2023-03-11T06:04:25.418Z,-0.44
2023-03-11T06:05:25.213Z,-0.45
2023-03-11T06:06:25.066Z,-0.44
2023-03-11T06:07:25.059Z,-0.44
2023-03-11T06:08:25.028Z,-0.45
2023-03-11T06:09:25.090Z,-0.45
2023-03-11T06:10:25.050Z,-0.47
2023-03-11T06:11:25.034Z,-0.45
2023-03-11T06:12:25.005Z,-0.44
2023-03-11T06:13:25.317Z,-0.42
2023-03-11T06:14:25.198Z,-0.39
2023-03-11T06:15:25.367Z,-0.37
2023-03-11T06:16:25.607Z,-0.36
2023-03-11T06:17:25.237Z,-0.33
2023-03-11T06:18:25.133Z,-0.30
2023-03-11T06:19:25.238Z,-0.29
2023-03-11T06:20:25.112Z,-0.27
2023-03-11T06:21:24.973Z,-0.26
2023-03-11T06:22:26.029Z,-0.26
2023-03-11T06:23:25.093Z,-0.24
2023-03-11T06:24:24.890Z,-0.24
2023-03-11T06:25:25.137Z,-0.23
2023-03-11T06:26:24.922Z,-0.23
2023-03-11T06:27:24.926Z,-0.23
2023-03-11T06:28:24.886Z,-0.22
2023-03-11T06:29:24.821Z,-0.22
2023-03-11T06:30:24.818Z,-0.22
2023-03-11T06:31:25.048Z,-0.22
2023-03-11T06:32:24.848Z,-0.19
2023-03-11T06:33:24.933Z,-0.18
2023-03-11T06:34:24.887Z,-0.15
2023-03-11T06:35:24.788Z,-0.12
2023-03-11T06:36:24.786Z,-0.09
2023-03-11T06:37:24.759Z,-0.05
2023-03-11T06:38:24.838Z,0.00
2023-03-11T06:39:24.785Z,0.03
2023-03-11T06:40:24.755Z,0.06
2023-03-11T06:41:24.839Z,0.03
2023-03-11T06:42:24.774Z,0.03
2023-03-11T06:43:24.719Z,0.03
2023-03-11T06:44:25.002Z,0.05
2023-03-11T06:45:24.735Z,0.02
2023-03-11T06:46:24.889Z,0.02
2023-03-11T06:47:24.871Z,0.03
2023-03-11T06:48:24.749Z,0.02
2023-03-11T06:49:24.675Z,0.00
2023-03-11T06:50:24.683Z,-0.01
2023-03-11T06:51:24.665Z,-0.04
2023-03-11T06:52:24.622Z,-0.06
2023-03-11T06:53:24.756Z,-0.06
2023-03-11T06:54:24.589Z,-0.08
2023-03-11T06:55:24.811Z,-0.08
2023-03-11T06:56:24.563Z,-0.08
2023-03-11T06:57:24.811Z,-0.09
2023-03-11T06:58:24.731Z,-0.12
2023-03-11T06:59:24.623Z,-0.11
2023-03-11T07:00:24.621Z,-0.13
2023-03-11T07:01:24.574Z,-0.09
2023-03-11T07:02:24.533Z,-0.06
2023-03-11T07:03:24.546Z,0.06
2023-03-11T07:04:24.531Z,0.21
2023-03-11T07:05:24.500Z,0.46
2023-03-11T07:06:24.653Z,0.83
2023-03-11T07:07:24.502Z,1.26
2023-03-11T07:08:24.473Z,1.73
2023-03-11T07:09:24.620Z,2.12
2023-03-11T07:10:24.441Z,2.46
2023-03-11T07:11:24.611Z,2.67
2023-03-11T07:12:24.604Z,2.82
2023-03-11T07:13:24.551Z,3.03
2023-03-11T07:14:24.435Z,3.28
2023-03-11T07:15:24.461Z,3.58
2023-03-11T07:16:24.491Z,3.78
2023-03-11T07:17:24.604Z,3.86
2023-03-11T07:18:24.438Z,3.98
2023-03-11T07:19:24.565Z,4.15
2023-03-11T07:20:24.474Z,4.21
2023-03-11T07:21:24.509Z,4.34
2023-03-11T07:22:24.335Z,4.42
2023-03-11T07:23:24.678Z,4.67
2023-03-11T07:24:24.561Z,4.73
2023-03-11T07:25:24.569Z,4.76
2023-03-11T07:26:24.488Z,5.04
2023-03-11T07:27:24.305Z,5.30
2023-03-11T07:28:24.397Z,5.07
2023-03-11T07:29:24.296Z,5.10
2023-03-11T07:30:24.458Z,5.16
2023-03-11T07:31:24.330Z,5.01
2023-03-11T07:32:24.477Z,5.16
2023-03-11T07:33:24.442Z,5.35
2023-03-11T07:34:24.239Z,5.37
2023-03-11T07:35:24.218Z,5.38
2023-03-11T07:36:24.197Z,5.48
2023-03-11T07:37:24.330Z,5.45
2023-03-11T07:38:24.364Z,5.32
2023-03-11T07:39:24.288Z,5.45
2023-03-11T07:40:24.515Z,5.70
2023-03-11T07:41:24.291Z,6.01
2023-03-11T07:42:24.146Z,6.03
2023-03-11T07:43:24.156Z,6.04
2023-03-11T07:44:24.150Z,6.14
2023-03-11T07:45:24.131Z,5.81
2023-03-11T07:46:24.151Z,5.96
2023-03-11T07:47:24.111Z,6.16
2023-03-11T07:48:24.398Z,6.38
2023-03-11T07:49:24.380Z,6.71
2023-03-11T07:50:24.269Z,6.65
2023-03-11T07:51:24.266Z,6.81
2023-03-11T07:52:24.055Z,6.84
2023-03-11T07:53:24.221Z,6.90
2023-03-11T07:54:23.998Z,6.81
2023-03-11T07:55:24.026Z,6.58
2023-03-11T07:56:24.033Z,6.69
2023-03-11T07:57:24.028Z,6.95
2023-03-11T07:58:24.000Z,7.24
2023-03-11T07:59:23.960Z,7.58
2023-03-11T08:00:23.975Z,7.87
2023-03-11T08:01:24.006Z,7.77
2023-03-11T08:02:24.009Z,7.77
2023-03-11T08:03:24.545Z,7.89
2023-03-11T08:04:23.914Z,8.00
2023-03-11T08:05:23.928Z,7.85
2023-03-11T08:06:23.891Z,7.84
2023-03-11T08:07:23.900Z,7.92
2023-03-11T08:08:23.990Z,8.03
2023-03-11T08:09:24.055Z,7.94
2023-03-11T08:10:23.937Z,7.78
2023-03-11T08:11:24.029Z,7.85
2023-03-11T08:12:23.887Z,7.90
2023-03-11T08:13:23.836Z,7.89
2023-03-11T08:14:23.811Z,7.75
2023-03-11T08:15:23.922Z,8.08
2023-03-11T08:16:23.876Z,7.89
2023-03-11T08:17:24.301Z,8.10
2023-03-11T08:18:23.776Z,8.17
2023-03-11T08:19:23.778Z,8.25
2023-03-11T08:20:23.766Z,7.99
2023-03-11T08:21:23.953Z,7.96
2023-03-11T08:22:23.734Z,7.78
2023-03-11T08:23:23.756Z,7.55
2023-03-11T08:24:23.717Z,7.62
2023-03-11T08:25:23.730Z,7.58
2023-03-11T08:26:23.694Z,7.08
2023-03-11T08:27:24.055Z,7.05
2023-03-11T08:28:23.998Z,7.34
2023-03-11T08:29:23.802Z,7.63
2023-03-11T08:30:23.630Z,7.75
2023-03-11T08:31:23.717Z,8.12
2023-03-11T08:32:23.791Z,8.36
2023-03-11T08:33:23.731Z,8.25
2023-03-11T08:34:23.612Z,8.35
2023-03-11T08:35:23.564Z,8.60
2023-03-11T08:36:23.586Z,8.86
2023-03-11T08:37:24.443Z,9.05
2023-03-11T08:38:23.796Z,9.39
2023-03-11T08:39:23.582Z,9.53
2023-03-11T08:40:23.713Z,10.00
2023-03-11T08:41:23.659Z,10.12
2023-03-11T08:42:23.544Z,10.09
2023-03-11T08:43:23.527Z,10.00
2023-03-11T08:44:23.692Z,9.71
2023-03-11T08:45:23.551Z,9.35
2023-03-11T08:46:23.508Z,9.31
2023-03-11T08:47:23.500Z,9.21
2023-03-11T08:48:23.688Z,9.09
2023-03-11T08:49:23.720Z,8.54
2023-03-11T08:50:23.446Z,8.63
2023-03-11T08:52:50.751Z,8.57
2023-03-11T08:52:55.768Z,8.87
2023-03-11T08:53:55.885Z,9.09
2023-03-11T08:54:55.758Z,9.30
2023-03-11T08:55:55.631Z,9.09
2023-03-11T08:56:55.689Z,8.87
2023-03-11T08:57:55.693Z,8.73
2023-03-11T08:58:55.727Z,8.50
2023-03-11T08:59:55.707Z,8.29
2023-03-11T09:00:55.646Z,8.22
2023-03-11T09:01:55.553Z,8.35
2023-03-11T09:02:56.052Z,8.83
2023-03-11T09:03:55.550Z,8.86
2023-03-11T09:04:55.554Z,8.81
2023-03-11T09:05:55.612Z,9.06
2023-03-11T09:06:55.556Z,9.23
2023-03-11T09:07:55.532Z,9.43
2023-03-11T09:08:55.971Z,9.57
2023-03-11T09:09:55.502Z,10.06
2023-03-11T09:10:55.591Z,10.28
2023-03-11T09:11:55.908Z,10.84
2023-03-11T09:12:55.485Z,11.61
2023-03-11T09:13:55.464Z,11.87
2023-03-11T09:14:55.471Z,12.08
2023-03-11T09:15:55.538Z,12.04
2023-03-11T09:16:55.429Z,11.13
2023-03-11T09:17:55.826Z,10.89
2023-03-11T09:18:55.520Z,10.84
2023-03-11T09:19:55.402Z,10.95
2023-03-11T09:20:55.528Z,10.44
2023-03-11T09:21:55.393Z,10.17
2023-03-11T09:22:55.602Z,10.39
2023-03-11T09:23:55.439Z,10.47
2023-03-11T09:24:55.371Z,10.63
2023-03-11T09:25:55.422Z,10.98
2023-03-11T09:26:55.370Z,11.46
2023-03-11T09:27:55.458Z,11.59
2023-03-11T09:28:55.352Z,11.61
2023-03-11T09:29:55.404Z,11.85
2023-03-11T09:30:55.465Z,12.45
2023-03-11T09:31:55.430Z,11.67
2023-03-11T09:32:55.487Z,11.07
2023-03-11T09:33:55.430Z,11.29
2023-03-11T09:34:55.352Z,11.89
2023-03-11T09:35:55.334Z,11.94
2023-03-11T09:36:55.393Z,12.59
2023-03-11T09:37:55.221Z,13.22
2023-03-11T09:38:55.371Z,13.24
2023-03-11T09:39:55.187Z,13.80
2023-03-11T09:40:55.259Z,13.77
2023-03-11T09:41:58.781Z,13.43
2023-03-11T09:42:55.319Z,13.41
2023-03-11T09:43:55.244Z,13.73
2023-03-11T09:44:55.263Z,13.74
2023-03-11T09:45:55.146Z,14.37
2023-03-11T09:46:55.591Z,15.02
2023-03-11T09:47:55.191Z,15.36
2023-03-11T09:48:55.118Z,15.36
2023-03-11T09:49:55.114Z,15.20
2023-03-11T09:50:55.243Z,14.83
2023-03-11T09:51:55.257Z,14.71
2023-03-11T09:52:55.075Z,13.81
2023-03-11T09:53:55.219Z,13.15
2023-03-11T09:54:55.113Z,13.17
2023-03-11T09:55:55.065Z,13.73
2023-03-11T09:56:55.068Z,14.65
2023-03-11T09:57:55.284Z,15.02
2023-03-11T09:58:55.202Z,15.03
2023-03-11T09:59:55.042Z,15.88
2023-03-11T10:00:55.056Z,16.12
2023-03-11T10:01:55.055Z,15.03
2023-03-11T10:02:55.222Z,15.27
2023-03-11T10:03:55.346Z,15.27
2023-03-11T10:04:54.956Z,15.09
2023-03-11T10:05:55.031Z,14.72
2023-03-11T10:06:54.940Z,13.18
2023-03-11T10:07:54.917Z,11.85
2023-03-11T10:08:55.320Z,10.42
2023-03-11T10:09:54.917Z,9.97
2023-03-11T10:10:54.912Z,9.75
2023-03-11T10:11:54.904Z,9.34
2023-03-11T10:12:54.979Z,9.46
2023-03-11T10:13:55.050Z,9.53
2023-03-11T10:14:55.033Z,10.73
2023-03-11T10:15:54.839Z,11.90
2023-03-11T10:16:54.823Z,13.04
2023-03-11T10:17:55.023Z,14.09
2023-03-11T10:18:55.017Z,15.20
2023-03-11T10:19:55.181Z,16.20
2023-03-11T10:20:54.817Z,16.59
2023-03-11T10:21:55.008Z,17.22
2023-03-11T10:22:54.795Z,16.96
2023-03-11T10:23:54.900Z,17.11
2023-03-11T10:24:54.935Z,17.69
2023-03-11T10:25:54.721Z,17.82
2023-03-11T10:26:54.734Z,16.81
2023-03-11T10:27:54.916Z,17.22
2023-03-11T10:28:54.931Z,16.88
2023-03-11T10:29:54.823Z,17.35
2023-03-11T10:30:54.677Z,17.71
2023-03-11T10:31:54.814Z,17.51
2023-03-11T10:32:54.742Z,16.99
2023-03-11T10:33:54.656Z,17.10
2023-03-11T10:34:54.747Z,17.20
2023-03-11T10:35:54.667Z,17.32
2023-03-11T10:36:54.786Z,16.85
2023-03-11T10:37:54.799Z,15.99
2023-03-11T10:38:55.239Z,15.03
2023-03-11T10:39:54.577Z,15.03
2023-03-11T10:40:54.583Z,14.17
2023-03-11T10:41:54.707Z,12.95
2023-03-11T10:42:54.620Z,12.29
2023-03-11T10:43:54.611Z,11.74
2023-03-11T10:44:54.581Z,11.27
2023-03-11T10:45:54.774Z,10.70
2023-03-11T10:46:54.674Z,10.01
2023-03-11T10:47:54.523Z,9.49
2023-03-11T10:48:54.493Z,9.16
2023-03-11T10:49:54.470Z,8.91
2023-03-11T10:50:54.511Z,8.48
2023-03-11T10:51:54.531Z,8.26
2023-03-11T10:52:54.870Z,8.36
2023-03-11T10:53:54.480Z,8.30
2023-03-11T10:54:54.607Z,7.82
2023-03-11T10:55:54.540Z,7.87
2023-03-11T10:56:54.451Z,8.30
2023-03-11T10:57:54.414Z,8.69
2023-03-11T10:58:54.603Z,8.84
2023-03-11T10:59:54.738Z,8.22
2023-03-11T11:00:54.533Z,8.08
2023-03-11T11:01:54.533Z,8.26
2023-03-11T11:02:54.459Z,8.39
2023-03-11T11:03:54.375Z,8.26
2023-03-11T11:04:54.428Z,8.28
2023-03-11T11:05:54.394Z,8.26
2023-03-11T11:06:54.556Z,8.51
2023-03-11T11:07:54.354Z,8.68
2023-03-11T11:08:54.667Z,9.48
2023-03-11T11:09:54.600Z,10.56
2023-03-11T11:10:54.266Z,11.72
2023-03-11T11:11:54.251Z,12.11
2023-03-11T11:12:54.364Z,13.03
2023-03-11T11:13:54.243Z,14.04
2023-03-11T11:14:54.292Z,14.44
2023-03-11T11:15:54.360Z,15.63
2023-03-11T11:16:54.441Z,15.12
2023-03-11T11:17:54.420Z,14.75
2023-03-11T11:18:54.854Z,15.23
2023-03-11T11:19:54.476Z,15.79
2023-03-11T11:20:54.231Z,16.40
2023-03-11T11:21:54.317Z,16.33
2023-03-11T11:22:54.416Z,16.78
2023-03-11T11:23:54.237Z,16.07
2023-03-11T11:24:54.337Z,15.36
2023-03-11T11:25:54.135Z,15.28
2023-03-11T11:26:54.215Z,14.49
2023-03-11T11:27:54.289Z,14.80
2023-03-11T11:28:54.330Z,14.64
2023-03-11T11:29:54.489Z,14.62
2023-03-11T11:30:54.218Z,14.95
2023-03-11T11:31:54.093Z,15.19
2023-03-11T11:32:54.384Z,14.69
2023-03-11T11:33:54.251Z,14.07
2023-03-11T11:34:54.073Z,13.96
2023-03-11T11:35:54.383Z,14.38
2023-03-11T11:36:54.181Z,15.11
2023-03-11T11:37:54.019Z,15.20
2023-03-11T11:38:54.277Z,14.81
2023-03-11T11:39:53.966Z,14.69
2023-03-11T11:40:53.993Z,14.24
2023-03-11T11:41:53.955Z,14.49
2023-03-11T11:42:54.059Z,15.05
2023-03-11T11:43:54.031Z,16.01
2023-03-11T11:44:53.974Z,17.26
2023-03-11T11:45:54.083Z,16.77
2023-03-11T11:46:53.877Z,14.84
2023-03-11T11:47:53.889Z,14.52
2023-03-11T11:48:53.873Z,14.43
2023-03-11T11:49:53.862Z,13.98
2023-03-11T11:50:54.026Z,13.32
2023-03-11T11:51:53.917Z,12.34
2023-03-11T11:52:53.835Z,11.67
2023-03-11T11:53:53.833Z,11.50
2023-03-11T11:54:53.810Z,11.20
2023-03-11T11:55:53.806Z,11.44
2023-03-11T11:56:53.885Z,11.96
2023-03-11T11:57:53.987Z,13.04
2023-03-11T11:58:53.911Z,13.47
2023-03-11T11:59:55.429Z,14.47
2023-03-11T12:00:53.762Z,15.88
2023-03-11T12:01:53.839Z,16.23
2023-03-11T12:02:53.937Z,16.11
2023-03-11T12:03:53.826Z,16.55
2023-03-11T12:04:53.694Z,16.88
2023-03-11T12:05:55.541Z,16.55
2023-03-11T12:06:53.690Z,16.42
2023-03-11T12:07:53.797Z,16.85
2023-03-11T12:08:53.939Z,16.77
2023-03-11T12:09:53.668Z,16.25
2023-03-11T12:10:53.710Z,16.15
2023-03-11T12:11:53.683Z,16.16
2023-03-11T12:12:53.642Z,15.57
2023-03-11T12:13:53.698Z,15.99
2023-03-11T12:14:53.689Z,16.58
2023-03-11T12:15:53.884Z,15.84
2023-03-11T12:16:53.704Z,15.70
2023-03-11T12:17:53.670Z,16.55
2023-03-11T12:18:53.699Z,16.78
2023-03-11T12:19:53.614Z,15.64
2023-03-11T12:20:53.646Z,15.46
2023-03-11T12:21:53.710Z,15.68
2023-03-11T12:22:53.595Z,15.84
2023-03-11T12:23:55.039Z,15.88
2023-03-11T12:24:53.659Z,16.38
2023-03-11T12:25:53.510Z,17.25
2023-03-11T12:26:53.798Z,16.92
2023-03-11T12:27:53.644Z,16.00
2023-03-11T12:28:53.508Z,14.60
2023-03-11T12:29:53.819Z,13.98
2023-03-11T12:30:53.681Z,13.69
2023-03-11T12:31:53.463Z,14.42
2023-03-11T12:32:53.725Z,15.68
2023-03-11T12:33:53.430Z,16.16
2023-03-11T12:34:53.425Z,16.98
2023-03-11T12:35:53.605Z,16.80
2023-03-11T12:36:53.561Z,17.41
2023-03-11T12:37:53.591Z,17.69
2023-03-11T12:38:53.544Z,18.31
2023-03-11T12:39:53.528Z,17.50
2023-03-11T12:40:53.526Z,17.10
2023-03-11T12:41:53.410Z,16.56
2023-03-11T12:42:53.525Z,16.55
2023-03-11T12:43:53.317Z,17.32
2023-03-11T12:44:53.331Z,17.54
2023-03-11T12:45:53.366Z,17.87
2023-03-11T12:46:53.405Z,18.43
2023-03-11T12:47:53.466Z,19.43
2023-03-11T12:48:53.258Z,19.63
2023-03-11T12:49:53.291Z,20.31
2023-03-11T12:50:53.326Z,20.91
2023-03-11T12:51:53.233Z,19.10
2023-03-11T12:52:53.231Z,19.39
2023-03-11T12:53:53.218Z,20.21
2023-03-11T12:54:53.225Z,20.61
2023-03-11T12:55:53.195Z,21.36
2023-03-11T12:56:53.215Z,21.75
2023-03-11T12:57:53.185Z,20.65
2023-03-11T12:58:53.174Z,20.00
2023-03-11T12:59:53.190Z,20.12
2023-03-11T13:00:53.151Z,20.65
2023-03-11T13:01:53.285Z,20.13
2023-03-11T13:02:53.430Z,19.87
2023-03-11T13:03:53.198Z,19.50
2023-03-11T13:04:53.106Z,18.70
2023-03-11T13:05:53.121Z,18.50
2023-03-11T13:06:53.137Z,19.02
2023-03-11T13:07:53.121Z,18.77